If you wish to contribute or participate in the discussions about articles you are invited to join SKYbrary as a registered user

 Actions

Belfast Aldergrove

From SKYbrary Wiki

EGAA /
Revision as of 16:03, 22 March 2010 by Editor1 (talk | contribs) (Created page with '{{Airport |Airport_Name=Belfast Aldergrove |ICAO_Region=EUR |ICAO_Territory=EG |Location=Belfast, Aldergrove, Northern Ireland |Coordinates= 54° 39′ 45″ N, 6° 12′ 95″ W…')
(diff) ← Older revision | Latest revision (diff) | Newer revision → (diff)
Airport
ICAO: EGAA
Summary
Name Belfast Aldergrove
Region Europe
Territory United Kingdom GB.gif
Location Belfast, Aldergrove, Northern Ireland
Serving
Coordinates 54° 39' 45.00" N, 6° 13' 35.00" W
Runways
Designator Length Width Surface ROPS
7/25 2780 m9,120.735 ft <br /> 45 m147.638 ft <br /> ASP yes/yes
17/35 1951 m6,400.919 ft <br /> 45 m147.638 ft <br /> ASP yes/yes


METAR
Observation EGAA 250850Z 24008KT 7000 FEW004 SCT045 M02/M02 Q1008
Station Belfast / Aldergrove Airport
Date/Time 25 January 2021 08:50:00
Wind direction 240°
Wind speed 08 kts
Lowest cloud amount few clouds
Temperature
Dew point
Humidity 100%
QNH 1008 hPa
Weather condition n/a